全部
Deniliquin Airport (Deniliquin, New South Wales) DNQ 天气
|
Deniliquin, New South Wales (DNQ / YDLQ)
晴天
多风 |
|
19 °C |
There is no TAF data available at DNQ or any nearby airports.
DNQ近期METAR历史数据
| Date | Time (AEST) | Flight Rules | Wind Dir. | Speed | Type | Height AGL (ft) | Visibility | Temp (°C) | Temp (°F) | Dew Point (°C) | Dew Point (°F) | Rel. Humid. | Pressure | Density Altitude | Remarks |
|---|---|---|---|---|---|---|---|---|---|---|---|---|---|---|---|
| 03-五月 | 13:00 | n/a | 330° | 11 kt | Missing | 19° | 66° | 16° | 60° | 83% | 1013 mb | 802 ft | |||
| 03-五月 | 12:00 | n/a | 330° | 11 kt | Missing | 19° | 66° | 16° | 60° | 83% | 1013 mb | 802 ft | |||
| 03-五月 | 11:00 | n/a | 300° | 12 kt | Missing | 20° | 68° | 15° | 59° | 73% | 1014 mb | 893 ft | Thunderstorms | ||
| 03-五月 | 10:00 | n/a | 10° | 15 kt | Missing | 21° | 69° | 15° | 59° | 69% | 1013 mb | 1,042 ft | Wind gusting to 26 KT | ||
| 03-五月 | 09:00 | n/a | 40° | 15 kt | Missing | 20° | 68° | 15° | 59° | 73% | 1012 mb | 952 ft | |||
| 03-五月 | 08:00 | n/a | 50° | 12 kt | Missing | 18° | 64° | 15° | 59° | 83% | 1013 mb | 682 ft | |||
| 03-五月 | 07:00 | n/a | 60° | 11 kt | Missing | 17° | 62° | 15° | 59° | 88% | 1013 mb | 562 ft | |||
| 03-五月 | 06:00 | n/a | 60° | 10 kt | Missing | 17° | 62° | 15° | 59° | 88% | 1013 mb | 562 ft | |||
| 03-五月 | 05:00 | n/a | 360° | 7 kt | Missing | 18° | 64° | 15° | 59° | 83% | 1014 mb | 653 ft | |||
| 03-五月 | 04:00 | n/a | 10° | 10 kt | Missing | 20° | 68° | 13° | 55° | 64% | 1013 mb | 922 ft | |||
| 03-五月 | 03:00 | n/a | 360° | 6 kt | Missing | 21° | 69° | 12° | 53° | 56% | 1013 mb | 1,042 ft | |||
| 03-五月 | 02:00 | n/a | 30° | 14 kt | Missing | 21° | 69° | 11° | 51° | 53% | 1013 mb | 1,042 ft | |||
| 03-五月 | 01:00 | n/a | 40° | 12 kt | Missing | 21° | 69° | 11° | 51° | 53% | 1013 mb | 1,042 ft | |||
| 03-五月 | 00:00 | n/a | 30° | 12 kt | Missing | 22° | 71° | 10° | 50° | 46% | 1014 mb | 1,133 ft | |||
| 02-五月 | 23:00 | n/a | 330° | 7 kt | Missing | 22° | 71° | 9° | 48° | 43% | 1015 mb | 1,103 ft | |||
| 02-五月 | 22:00 | n/a | 20° | 8 kt | Missing | 23° | 73° | 9° | 48° | 41% | 1016 mb | 1,194 ft | |||
| 02-五月 | 21:00 | n/a | 20° | 5 kt | Missing | 21° | 69° | 9° | 48° | 46% | 1016 mb | 954 ft | |||
| 02-五月 | 20:00 | n/a | 50° | 7 kt | Missing | 22° | 71° | 8° | 46° | 41% | 1015 mb | 1,103 ft | |||
| 02-五月 | 19:00 | n/a | 50° | 8 kt | Missing | 23° | 73° | 8° | 46° | 38% | 1015 mb | 1,223 ft | |||
| 02-五月 | 18:00 | n/a | 40° | 9 kt | Missing | 24° | 75° | 8° | 46° | 36% | 1015 mb | 1,343 ft | |||
| 02-五月 | 17:00 | n/a | 10° | 11 kt | Missing | 25° | 77° | 8° | 46° | 34% | 1015 mb | 1,463 ft | |||
| 02-五月 | 16:00 | n/a | 10° | 13 kt | Missing | 26° | 78° | 7° | 44° | 30% | 1015 mb | 1,583 ft | |||
| 02-五月 | 15:00 | n/a | 360° | 13 kt | Missing | 26° | 78° | 7° | 44° | 30% | 1015 mb | 1,583 ft | |||
| 02-五月 | 14:00 | n/a | 20° | 14 kt | Missing | 26° | 78° | 7° | 44° | 30% | 1016 mb | 1,554 ft |
登录
| 您的浏览器不支持. 升级您的浏览器 |
